Time;durP1;ratioP1;P1;durP2;ratioP2;P2;SDS_P1;SDS_P2;PMS_P1;PMS_P2;Temp;Humidity;BMP_temperature;BMP_pressure;BME280_temperature;BME280_humidity;BME280_pressure;Samples;Min_cycle;Max_cycle;Signal;HPM_P1;HPM_P2
2023/08/30 00:00:54;;;;;;;12.05;7.93;;;;;;;22.07;58.49;93003.66;5010055;28;20490;-76
2023/08/30 00:03:20;;;;;;;14.70;7.38;;;;;;;22.02;58.48;92998.69;5011040;28;20053;-76
2023/08/30 00:05:45;;;;;;;10.57;7.97;;;;;;;22.03;58.97;93002.94;5008936;28;20037;-77
2023/08/30 00:08:11;;;;;;;8.73;6.93;;;;;;;21.92;55.92;92990.66;5011323;28;20036;-77
2023/08/30 00:10:37;;;;;;;7.82;6.18;;;;;;;21.89;54.50;93003.09;5016345;28;20052;-77
2023/08/30 00:13:03;;;;;;;8.02;6.78;;;;;;;21.92;54.87;93013.09;5008590;28;20030;-77
2023/08/30 00:15:29;;;;;;;10.82;6.32;;;;;;;21.95;52.84;93014.97;5009301;28;20024;-77
2023/08/30 00:17:54;;;;;;;10.82;6.78;;;;;;;21.76;51.58;93007.47;5007715;28;20756;-77
2023/08/30 00:20:20;;;;;;;10.20;5.80;;;;;;;21.83;50.70;93015.53;5009743;28;20513;-77
2023/08/30 00:22:48;;;;;;;7.70;5.72;;;;;;;21.97;49.78;93018.06;5007748;28;20107;-77
2023/08/30 00:25:13;;;;;;;8.15;5.70;;;;;;;21.94;49.78;93004.59;5008565;28;20083;-76
2023/08/30 00:27:39;;;;;;;5.78;5.13;;;;;;;21.90;49.83;93003.84;5011660;28;20029;-77
2023/08/30 00:30:05;;;;;;;7.43;5.25;;;;;;;21.79;49.86;93002.03;5009832;28;20080;-77
2023/08/30 00:32:31;;;;;;;9.68;6.10;;;;;;;21.78;50.09;93010.53;5009508;28;20056;-76
2023/08/30 00:34:56;;;;;;;11.85;6.57;;;;;;;21.80;49.35;93002.81;5008706;28;20580;-77
2023/08/30 00:37:21;;;;;;;7.05;5.35;;;;;;;21.63;49.58;92987.50;5007182;28;20041;-77
2023/08/30 00:39:47;;;;;;;11.02;5.30;;;;;;;21.59;49.67;92984.06;5007902;28;20113;-77
2023/08/30 00:42:12;;;;;;;7.40;5.28;;;;;;;21.72;50.10;93001.31;5007732;28;20394;-77
2023/08/30 00:44:37;;;;;;;7.60;5.57;;;;;;;21.64;50.36;93000.63;5008945;28;20037;-77
2023/08/30 00:47:03;;;;;;;8.32;6.10;;;;;;;21.62;50.42;93010.31;5007738;28;20520;-76
2023/08/30 00:49:30;;;;;;;8.35;5.80;;;;;;;21.54;50.05;92995.31;5007946;28;20152;-77
2023/08/30 00:51:57;;;;;;;9.90;5.40;;;;;;;21.58;51.14;93012.28;5008871;28;20196;-77
2023/08/30 00:54:23;;;;;;;12.95;6.15;;;;;;;21.46;51.26;93022.41;5007817;28;20731;-76
2023/08/30 00:56:50;;;;;;;10.00;6.03;;;;;;;21.43;51.16;93025.16;5014107;28;20123;-77
2023/08/30 00:59:15;;;;;;;8.88;5.70;;;;;;;21.45;50.93;93022.81;5008617;28;20405;-77
2023/08/30 01:01:41;;;;;;;9.70;5.82;;;;;;;21.45;50.95;93026.31;5010120;28;20022;-77
2023/08/30 01:04:07;;;;;;;6.35;5.03;;;;;;;21.44;51.63;93008.53;5006953;28;20554;-75
2023/08/30 01:06:35;;;;;;;7.30;5.00;;;;;;;21.41;50.48;93014.72;5010576;28;20028;-76
2023/08/30 01:09:01;;;;;;;8.32;5.80;;;;;;;21.41;50.26;93009.31;5003810;28;20597;-77
2023/08/30 01:11:46;;;;;;;8.77;5.38;;;;;;;21.32;49.37;93019.81;5007152;28;20246;-77
2023/08/30 01:14:39;;;;;;;7.15;5.63;;;;;;;21.27;49.37;93025.66;5006135;28;20596;-77
2023/08/30 01:17:07;;;;;;;9.13;6.03;;;;;;;21.29;50.77;93028.75;5009967;28;20065;-77
2023/08/30 01:19:32;;;;;;;12.00;5.78;;;;;;;21.31;49.66;93029.13;5007165;28;20033;-77
2023/08/30 01:22:11;;;;;;;10.15;5.22;;;;;;;21.26;50.04;93029.56;5008626;28;20056;-77
2023/08/30 01:24:45;;;;;;;6.30;4.88;;;;;;;21.31;49.86;93036.47;5006721;28;20500;-77
2023/08/30 01:27:12;;;;;;;10.23;4.93;;;;;;;21.19;50.08;93035.00;5008321;28;20096;-75
2023/08/30 01:29:40;;;;;;;8.77;5.20;;;;;;;21.06;49.83;93012.34;5006086;28;20080;-76
2023/08/30 01:32:09;;;;;;;6.50;5.35;;;;;;;21.20;49.87;93020.34;5015567;28;20504;-76
2023/08/30 01:34:37;;;;;;;9.00;5.45;;;;;;;21.19;49.64;93021.50;5007866;28;20030;-77
2023/08/30 01:37:05;;;;;;;9.68;5.63;;;;;;;21.24;48.76;93036.53;5007929;28;20021;-76
2023/08/30 01:39:32;;;;;;;7.22;4.75;;;;;;;21.24;49.13;93010.25;5007008;28;20026;-76
2023/08/30 01:42:00;;;;;;;7.40;4.40;;;;;;;21.29;49.68;93030.69;5007654;28;20040;-77
2023/08/30 01:44:28;;;;;;;5.88;5.10;;;;;;;21.32;49.71;93038.75;5006286;28;20567;-76
2023/08/30 01:46:54;;;;;;;5.53;4.43;;;;;;;21.36;49.99;93031.38;5002252;28;20091;-76
2023/08/30 01:49:21;;;;;;;15.18;5.38;;;;;;;21.35;51.34;93027.16;5006055;28;20041;-76
2023/08/30 01:51:46;;;;;;;11.48;5.28;;;;;;;21.28;51.61;93023.72;5006466;28;20030;-76
2023/08/30 01:54:17;;;;;;;10.93;4.57;;;;;;;21.20;49.12;93020.34;5006993;28;20502;-75
2023/08/30 01:56:43;;;;;;;6.93;5.03;;;;;;;21.26;50.25;93024.16;5015454;28;20060;-76
2023/08/30 01:59:08;;;;;;;5.43;4.63;;;;;;;21.12;51.61;93018.09;5009513;28;20505;-76
2023/08/30 02:01:34;;;;;;;7.85;4.30;;;;;;;21.20;50.93;93036.56;5007290;28;20125;-77
2023/08/30 02:04:00;;;;;;;7.60;4.88;;;;;;;21.25;50.82;93036.13;5007670;28;20108;-76
2023/08/30 02:06:50;;;;;;;8.27;4.45;;;;;;;21.18;51.66;93036.16;5006838;28;20040;-75
2023/08/30 02:09:32;;;;;;;8.73;4.75;;;;;;;21.07;49.39;93018.53;5006755;28;20531;-77
2023/08/30 02:12:04;;;;;;;11.52;5.22;;;;;;;21.13;48.46;93017.66;5017855;28;20041;-76
2023/08/30 02:14:32;;;;;;;5.80;4.05;;;;;;;21.24;47.01;93023.00;5008010;28;20045;-76
2023/08/30 02:16:58;;;;;;;7.03;5.38;;;;;;;21.21;48.37;93019.16;5007640;28;20160;-76
2023/08/30 02:19:24;;;;;;;6.30;4.10;;;;;;;21.23;46.88;93007.94;5005665;28;20117;-76
2023/08/30 02:21:49;;;;;;;9.63;4.55;;;;;;;21.14;46.36;93019.22;5006331;28;20441;-76
2023/08/30 02:24:15;;;;;;;6.68;4.40;;;;;;;21.09;46.68;93011.53;5009386;28;20545;-76
2023/08/30 02:26:40;;;;;;;8.90;3.72;;;;;;;21.00;44.41;93011.22;5007396;28;20056;-76
2023/08/30 02:29:05;;;;;;;8.77;3.67;;;;;;;20.95;45.71;92992.72;5007695;28;20756;-76
2023/08/30 02:31:31;;;;;;;6.32;4.20;;;;;;;21.06;45.78;93019.69;5008610;28;20417;-76
2023/08/30 02:33:56;;;;;;;8.23;3.88;;;;;;;21.01;46.75;93001.94;5007189;28;20484;-76
2023/08/30 02:36:22;;;;;;;8.23;4.03;;;;;;;21.15;46.52;93023.47;5006755;28;20030;-75
2023/08/30 02:38:47;;;;;;;7.28;4.38;;;;;;;21.16;46.94;93019.59;5005859;28;20087;-77
2023/08/30 02:41:13;;;;;;;12.13;5.18;;;;;;;21.14;46.95;93021.91;5005621;28;20041;-75
2023/08/30 02:43:38;;;;;;;5.88;3.63;;;;;;;21.18;47.10;93028.06;5005916;28;21188;-76
2023/08/30 02:46:05;;;;;;;7.00;4.18;;;;;;;20.89;47.33;92986.97;5006408;28;20474;-78
2023/08/30 02:48:31;;;;;;;6.78;4.15;;;;;;;21.05;47.34;93005.38;5007546;28;20021;-75
2023/08/30 02:50:57;;;;;;;5.43;3.75;;;;;;;21.12;47.45;93010.72;5007049;28;20045;-78
2023/08/30 02:53:23;;;;;;;7.57;3.72;;;;;;;21.05;47.73;93002.69;5005608;28;20034;-78
2023/08/30 02:55:48;;;;;;;6.05;3.58;;;;;;;21.02;46.63;92998.81;5009175;28;20383;-78
2023/08/30 02:58:14;;;;;;;7.50;4.38;;;;;;;21.13;46.39;92996.03;5014024;28;20816;-78
2023/08/30 03:00:39;;;;;;;8.35;4.82;;;;;;;21.08;47.49;93006.50;5010200;28;20120;-77
2023/08/30 03:03:04;;;;;;;6.70;3.60;;;;;;;21.09;46.81;93008.81;5011810;28;20033;-78
2023/08/30 03:05:30;;;;;;;8.20;5.10;;;;;;;20.97;46.37;92985.00;5008161;28;20116;-78
2023/08/30 03:07:55;;;;;;;4.18;3.30;;;;;;;21.07;47.58;92999.59;5012070;28;20033;-77
2023/08/30 03:10:20;;;;;;;7.63;3.47;;;;;;;20.98;46.93;93008.13;5009547;28;20409;-77
2023/08/30 03:12:46;;;;;;;4.90;2.75;;;;;;;20.90;46.97;92996.63;5012782;28;20057;-77
2023/08/30 03:15:11;;;;;;;6.40;3.38;;;;;;;20.98;47.03;93010.84;5007599;28;20037;-77
2023/08/30 03:17:37;;;;;;;8.70;4.30;;;;;;;20.98;46.66;93016.25;5011130;28;20029;-78
2023/08/30 03:20:06;;;;;;;7.40;3.28;;;;;;;20.88;46.56;93014.38;5016805;28;20663;-78
2023/08/30 03:22:32;;;;;;;12.10;3.97;;;;;;;20.82;47.25;93010.56;5025421;28;20524;-78
2023/08/30 03:24:57;;;;;;;5.60;3.35;;;;;;;20.79;47.43;93003.22;5008049;28;20034;-78
2023/08/30 03:27:23;;;;;;;9.07;3.20;;;;;;;20.68;47.76;92999.84;5010800;28;20168;-78
2023/08/30 03:29:48;;;;;;;5.60;3.13;;;;;;;20.62;48.04;92993.31;5009763;28;20080;-77
2023/08/30 03:32:18;;;;;;;7.20;3.45;;;;;;;20.53;48.42;92989.09;5009756;28;20034;-78
2023/08/30 03:34:49;;;;;;;7.85;3.53;;;;;;;20.55;48.44;92988.72;5009228;28;20034;-78
2023/08/30 03:37:14;;;;;;;5.07;3.13;;;;;;;20.55;48.99;92996.81;5009341;28;20025;-77
2023/08/30 03:39:40;;;;;;;7.47;3.90;;;;;;;20.47;49.17;92998.81;5010334;28;20042;-78
2023/08/30 03:42:06;;;;;;;8.60;3.33;;;;;;;20.39;49.47;92993.81;5009087;28;20030;-78
2023/08/30 03:44:32;;;;;;;7.25;3.92;;;;;;;20.39;49.27;92989.19;5007782;28;20033;-77
2023/08/30 03:46:57;;;;;;;7.50;4.00;;;;;;;20.35;49.39;92988.44;5008911;28;20469;-77
2023/08/30 03:49:23;;;;;;;8.57;3.60;;;;;;;20.30;49.51;92986.16;5008994;28;20341;-78
2023/08/30 03:51:48;;;;;;;7.60;3.40;;;;;;;20.22;49.40;92990.06;5009195;28;20032;-78
2023/08/30 03:54:16;;;;;;;8.75;3.60;;;;;;;20.26;49.00;93004.31;5009034;28;20038;-78
2023/08/30 03:56:42;;;;;;;9.50;3.75;;;;;;;20.25;50.00;93010.88;5008519;28;20108;-78
2023/08/30 03:59:08;;;;;;;6.35;3.90;;;;;;;20.18;50.27;93008.22;5008076;28;20088;-78
2023/08/30 04:01:33;;;;;;;8.10;3.72;;;;;;;20.18;50.30;93021.72;5011982;28;20968;-77
2023/08/30 04:03:58;;;;;;;6.90;3.80;;;;;;;20.10;50.21;93028.25;5009630;28;20566;-78
2023/08/30 04:06:24;;;;;;;7.55;3.85;;;;;;;20.01;50.67;93020.56;5008310;28;20037;-78
2023/08/30 04:08:49;;;;;;;11.55;4.80;;;;;;;20.02;51.17;93008.63;5008984;28;20041;-78
2023/08/30 04:11:14;;;;;;;7.10;4.40;;;;;;;20.11;51.44;93011.66;5009031;28;20073;-78
2023/08/30 04:13:40;;;;;;;9.77;4.10;;;;;;;20.07;52.03;93013.63;5009276;28;20044;-79
2023/08/30 04:16:05;;;;;;;8.68;3.72;;;;;;;20.17;52.90;93018.25;5009944;28;20382;-77
2023/08/30 04:18:31;;;;;;;6.38;4.18;;;;;;;20.17;53.38;93022.88;5007749;28;20025;-78
2023/08/30 04:20:58;;;;;;;8.45;4.20;;;;;;;20.22;52.57;93022.47;5008899;28;20033;-77
2023/08/30 04:23:23;;;;;;;7.85;4.68;;;;;;;20.36;51.94;93035.88;5007387;28;20040;-77
2023/08/30 04:25:49;;;;;;;10.13;5.50;;;;;;;20.49;51.43;93042.38;5008752;28;20389;-77
2023/08/30 04:28:14;;;;;;;9.50;5.25;;;;;;;20.58;51.37;93040.00;5008908;28;20183;-78
2023/08/30 04:30:40;;;;;;;9.68;5.13;;;;;;;20.62;49.57;93039.25;5008251;28;20356;-77
2023/08/30 04:33:05;;;;;;;10.55;4.97;;;;;;;20.81;49.45;93063.81;5011939;28;20041;-78
2023/08/30 04:35:31;;;;;;;10.18;5.15;;;;;;;20.78;49.61;93066.53;5008355;28;20029;-77
2023/08/30 04:37:59;;;;;;;16.27;6.07;;;;;;;20.84;49.60;93062.25;5016631;28;20036;-77
2023/08/30 04:40:24;;;;;;;13.60;5.63;;;;;;;20.92;49.91;93080.75;5007427;28;20346;-77
2023/08/30 04:42:49;;;;;;;11.68;5.90;;;;;;;20.84;49.54;93062.25;5010344;28;20424;-78
2023/08/30 04:45:15;;;;;;;13.93;6.28;;;;;;;20.95;49.65;93065.69;5008710;28;20054;-78
2023/08/30 04:47:42;;;;;;;18.90;5.82;;;;;;;21.05;49.38;93083.78;5007689;28;20406;-77
2023/08/30 04:50:08;;;;;;;11.98;4.97;;;;;;;21.03;47.73;93067.19;5008216;28;20041;-78
2023/08/30 04:52:34;;;;;;;14.05;3.65;;;;;;;21.09;46.56;93079.13;5008597;28;20052;-78
2023/08/30 04:54:59;;;;;;;9.18;3.28;;;;;;;21.06;46.31;93079.91;5016995;28;20411;-78
2023/08/30 04:57:25;;;;;;;7.13;2.85;;;;;;;20.89;44.11;93069.97;5006789;28;20037;-77
2023/08/30 04:59:50;;;;;;;4.75;2.22;;;;;;;20.77;44.03;93065.78;5009235;28;20041;-79
2023/08/30 05:02:16;;;;;;;5.50;2.88;;;;;;;20.68;43.72;93059.28;5006486;28;20479;-77
2023/08/30 05:04:41;;;;;;;7.22;2.05;;;;;;;20.65;43.81;93073.56;5008683;28;20042;-77
2023/08/30 05:07:07;;;;;;;7.20;2.20;;;;;;;20.69;44.23;93071.59;5009642;28;20381;-76
2023/08/30 05:09:34;;;;;;;4.53;2.35;;;;;;;20.68;44.90;93064.69;5006888;28;20033;-76
2023/08/30 05:12:00;;;;;;;5.80;2.55;;;;;;;20.54;43.85;93063.56;5009562;28;20045;-78
2023/08/30 05:14:26;;;;;;;4.05;2.13;;;;;;;20.70;44.71;93068.50;5014536;28;20046;-77
2023/08/30 05:16:51;;;;;;;7.88;2.17;;;;;;;20.76;44.57;93060.78;5005475;28;20379;-78
2023/08/30 05:19:16;;;;;;;4.05;1.83;;;;;;;20.72;45.14;93065.44;5015475;28;20018;-77
2023/08/30 05:21:43;;;;;;;4.20;1.90;;;;;;;20.87;44.08;93061.50;5008856;28;20025;-78
2023/08/30 05:24:08;;;;;;;4.43;2.28;;;;;;;20.96;44.27;93061.84;5010238;28;20394;-77
2023/08/30 05:26:34;;;;;;;4.88;2.40;;;;;;;20.92;44.67;93069.19;5007867;28;20038;-78
2023/08/30 05:28:59;;;;;;;7.13;2.97;;;;;;;20.93;45.74;93078.81;5008707;28;20052;-78
2023/08/30 05:31:24;;;;;;;7.43;3.20;;;;;;;20.79;47.18;93074.25;5009678;28;20124;-77
2023/08/30 05:33:50;;;;;;;6.95;3.65;;;;;;;20.96;47.99;93089.63;5008635;28;20126;-77
2023/08/30 05:36:15;;;;;;;16.83;4.13;;;;;;;21.00;47.14;93086.91;5009284;28;20041;-78
2023/08/30 05:38:41;;;;;;;9.65;3.25;;;;;;;21.14;46.88;93084.09;5007882;28;20037;-77
2023/08/30 05:41:07;;;;;;;5.65;3.33;;;;;;;21.18;46.81;93075.97;5007469;28;20037;-77
2023/08/30 05:43:32;;;;;;;7.75;3.72;;;;;;;21.24;47.61;93085.97;5012588;28;20635;-77
2023/08/30 05:46:02;;;;;;;4.97;3.03;;;;;;;20.80;47.55;93061.50;5024117;28;20064;-77
2023/08/30 05:48:27;;;;;;;5.03;2.83;;;;;;;21.09;47.39;93079.13;5007524;28;20052;-78
2023/08/30 05:50:53;;;;;;;3.83;2.72;;;;;;;21.25;47.51;93076.69;5006940;28;20394;-77
2023/08/30 05:53:18;;;;;;;7.90;3.85;;;;;;;21.31;46.58;93080.53;5006802;28;20129;-78
2023/08/30 05:55:44;;;;;;;7.78;3.30;;;;;;;21.47;45.55;93061.06;5008533;28;20049;-77
2023/08/30 05:58:09;;;;;;;7.07;3.10;;;;;;;21.56;45.83;93063.34;5006925;28;20409;-77
2023/08/30 06:00:34;;;;;;;4.88;2.80;;;;;;;21.64;44.74;93092.63;5007172;28;20033;-78
2023/08/30 06:03:00;;;;;;;7.13;3.17;;;;;;;21.70;44.11;93084.84;5008002;28;20493;-77
2023/08/30 06:05:26;;;;;;;5.70;2.78;;;;;;;21.57;45.60;93081.09;5014212;28;20033;-78
2023/08/30 06:07:51;;;;;;;7.55;2.75;;;;;;;21.69;45.46;93072.50;5007186;28;20037;-77
2023/08/30 06:10:17;;;;;;;6.20;3.53;;;;;;;21.70;44.23;93065.91;5006851;28;20022;-77
2023/08/30 06:12:42;;;;;;;7.45;2.90;;;;;;;21.87;45.05;93073.09;5006119;28;20087;-77
2023/08/30 06:15:08;;;;;;;5.50;2.63;;;;;;;21.89;43.52;93070.75;5007308;28;20044;-78
2023/08/30 06:17:33;;;;;;;8.43;2.50;;;;;;;21.92;43.92;93080.78;5008299;28;20576;-77
2023/08/30 06:19:59;;;;;;;7.25;3.03;;;;;;;21.98;44.50;93068.34;5007419;28;20041;-80
2023/08/30 06:22:24;;;;;;;9.73;4.03;;;;;;;22.01;44.96;93066.75;5008729;28;20117;-76
2023/08/30 06:24:50;;;;;;;11.80;3.53;;;;;;;22.04;44.78;93064.03;5014390;28;20049;-77
2023/08/30 06:27:15;;;;;;;10.18;3.45;;;;;;;22.10;45.13;93064.34;5010090;28;20497;-77
2023/08/30 06:29:40;;;;;;;5.88;3.25;;;;;;;22.23;43.93;93085.13;5008676;28;20387;-78
2023/08/30 06:32:07;;;;;;;4.32;2.72;;;;;;;22.23;43.86;93082.41;5011533;28;20136;-77
2023/08/30 06:34:33;;;;;;;11.38;3.75;;;;;;;22.21;45.39;93076.63;5012853;28;20441;-77
2023/08/30 06:36:58;;;;;;;8.40;3.22;;;;;;;22.19;45.21;93078.91;5012081;28;20338;-77
2023/08/30 06:39:23;;;;;;;11.25;3.00;;;;;;;22.37;44.72;93083.41;5012732;28;20034;-76
2023/08/30 06:41:49;;;;;;;6.40;3.03;;;;;;;22.28;44.99;93076.56;5009657;28;20048;-77
2023/08/30 06:44:15;;;;;;;9.75;2.88;;;;;;;22.55;44.06;93086.69;5009439;28;20041;-77
2023/08/30 06:46:40;;;;;;;6.93;3.13;;;;;;;22.67;42.94;93086.91;5015947;28;20075;-77
2023/08/30 06:49:09;;;;;;;8.23;3.67;;;;;;;22.55;44.03;93084.72;5011489;28;20061;-77
2023/08/30 06:51:34;;;;;;;8.52;3.17;;;;;;;22.54;45.26;93082.41;5009834;28;20585;-77
2023/08/30 06:54:00;;;;;;;6.00;2.85;;;;;;;22.54;44.46;93079.72;5019497;28;20026;-77
2023/08/30 06:56:27;;;;;;;5.82;2.83;;;;;;;22.64;44.08;93071.47;5012638;28;20041;-77
2023/08/30 06:58:52;;;;;;;9.52;3.67;;;;;;;22.51;44.15;93088.66;5008424;28;20477;-79
2023/08/30 07:01:17;;;;;;;7.55;3.58;;;;;;;22.60;44.79;93059.91;5018212;28;20036;-77
2023/08/30 07:03:43;;;;;;;6.03;2.78;;;;;;;22.94;42.41;93086.97;5017139;28;20036;-76
2023/08/30 07:06:09;;;;;;;6.22;2.95;;;;;;;22.90;42.00;93078.13;5011208;28;20037;-77
2023/08/30 07:08:35;;;;;;;9.77;3.60;;;;;;;22.82;42.29;93054.97;5009163;28;20048;-77
2023/08/30 07:11:00;;;;;;;6.90;2.65;;;;;;;22.99;43.20;93081.09;5010516;28;20030;-77
2023/08/30 07:13:25;;;;;;;9.55;3.08;;;;;;;22.98;42.60;93076.84;5010026;28;20415;-78
2023/08/30 07:15:51;;;;;;;7.80;3.50;;;;;;;23.05;41.57;93074.03;5011297;28;20116;-76
2023/08/30 07:18:16;;;;;;;6.13;2.92;;;;;;;23.15;41.68;93083.19;5009746;28;20084;-76
2023/08/30 07:20:42;;;;;;;6.00;3.15;;;;;;;23.14;41.33;93082.41;5011116;28;20087;-77
2023/08/30 07:23:08;;;;;;;6.70;2.78;;;;;;;23.19;40.66;93083.91;5008379;28;20034;-79
2023/08/30 07:25:33;;;;;;;7.20;3.20;;;;;;;23.03;41.29;93079.09;5010128;28;20132;-77
2023/08/30 07:27:59;;;;;;;5.60;2.85;;;;;;;23.04;41.45;93094.19;5009205;28;20486;-76
2023/08/30 07:30:25;;;;;;;5.47;3.05;;;;;;;22.97;41.43;93083.44;5009807;28;20049;-77
2023/08/30 07:32:50;;;;;;;6.00;3.65;;;;;;;23.09;42.01;93082.09;5008432;28;20313;-77
2023/08/30 07:35:16;;;;;;;14.13;4.03;;;;;;;23.09;41.95;93091.00;5015250;28;20113;-78
2023/08/30 07:37:41;;;;;;;6.18;3.55;;;;;;;23.07;41.19;93093.34;5009762;28;20037;-78
2023/08/30 07:40:08;;;;;;;7.07;3.47;;;;;;;23.17;41.83;93096.34;5015844;28;20082;-78
2023/08/30 07:42:33;;;;;;;7.70;2.75;;;;;;;23.09;40.96;93074.75;5016157;28;20084;-77
2023/08/30 07:44:59;;;;;;;4.07;3.00;;;;;;;23.20;41.49;93073.81;5008383;28;20463;-76
2023/08/30 07:47:24;;;;;;;5.18;3.03;;;;;;;22.99;40.82;93072.19;5008797;28;20641;-77
2023/08/30 07:49:50;;;;;;;4.22;2.65;;;;;;;23.03;40.28;93075.59;5015149;28;20034;-78
2023/08/30 07:52:15;;;;;;;5.15;2.25;;;;;;;23.15;40.47;93078.53;5007300;28;20028;-77
2023/08/30 07:54:41;;;;;;;5.32;1.65;;;;;;;23.07;39.27;93081.78;5009821;28;20083;-76
2023/08/30 07:57:06;;;;;;;7.78;2.55;;;;;;;23.02;39.40;93080.28;5009836;28;20517;-75
2023/08/30 07:59:36;;;;;;;9.23;2.55;;;;;;;23.01;39.91;93089.59;5009314;28;20025;-77
2023/08/30 08:02:03;;;;;;;5.43;2.15;;;;;;;23.17;39.17;93096.34;5008810;28;20037;-77
2023/08/30 08:04:29;;;;;;;7.15;2.83;;;;;;;23.22;39.57;93088.50;5015075;28;20033;-77
2023/08/30 08:06:55;;;;;;;5.00;2.92;;;;;;;23.16;40.10;93087.44;5007378;28;20045;-77
2023/08/30 08:09:21;;;;;;;6.57;3.00;;;;;;;23.05;40.59;93074.03;5015909;28;20032;-76
2023/08/30 08:11:48;;;;;;;5.82;2.85;;;;;;;23.17;40.63;93091.69;5016197;28;20044;-78
2023/08/30 08:14:13;;;;;;;9.05;3.22;;;;;;;23.19;40.39;93089.31;5009280;28;20646;-77
2023/08/30 08:16:39;;;;;;;8.40;2.80;;;;;;;23.23;40.32;93091.97;5009160;28;20125;-77
2023/08/30 08:19:05;;;;;;;4.10;2.65;;;;;;;23.25;40.38;93086.91;5007839;28;20091;-78
2023/08/30 08:21:31;;;;;;;5.20;2.75;;;;;;;23.01;40.45;93067.91;5008678;28;20079;-78
2023/08/30 08:23:56;;;;;;;5.93;3.00;;;;;;;23.19;41.38;93088.56;5008603;28;20040;-79
2023/08/30 08:26:22;;;;;;;5.63;3.10;;;;;;;23.25;41.47;93093.13;5007353;28;20407;-77
2023/08/30 08:28:47;;;;;;;8.63;2.95;;;;;;;23.35;40.40;93099.56;5015693;28;20080;-77
2023/08/30 08:31:13;;;;;;;7.35;2.50;;;;;;;23.50;40.83;93109.06;5009995;28;20481;-77
2023/08/30 08:33:39;;;;;;;3.67;2.28;;;;;;;23.42;40.14;93096.72;5008594;28;20603;-77
2023/08/30 08:36:05;;;;;;;8.70;2.88;;;;;;;23.23;39.64;93056.72;5009510;28;20030;-77
2023/08/30 08:38:30;;;;;;;4.43;2.83;;;;;;;23.48;39.84;93100.50;5006806;28;20041;-77
2023/08/30 08:41:03;;;;;;;8.90;2.78;;;;;;;23.49;40.49;93107.50;5009897;28;20532;-77
2023/08/30 08:43:29;;;;;;;11.23;2.92;;;;;;;23.42;40.02;93107.56;5006848;28;20087;-77
2023/08/30 08:45:59;;;;;;;7.15;2.88;;;;;;;23.33;40.82;93102.69;5012035;28;20025;-78
2023/08/30 08:48:28;;;;;;;11.70;2.95;;;;;;;23.48;40.09;93100.50;5015500;28;20045;-78
2023/08/30 08:50:54;;;;;;;8.63;3.67;;;;;;;23.48;40.09;93093.13;5005422;28;20556;-78
2023/08/30 08:53:21;;;;;;;3.83;2.47;;;;;;;23.56;39.48;93105.44;5007606;28;20578;-76
2023/08/30 08:55:48;;;;;;;6.45;3.08;;;;;;;23.43;40.52;93084.69;5009036;28;20036;-77
2023/08/30 08:58:14;;;;;;;6.47;2.47;;;;;;;23.49;40.62;93085.81;5007753;28;20109;-77
2023/08/30 09:00:42;;;;;;;4.97;3.00;;;;;;;23.25;40.13;93095.84;5007120;28;20052;-77
2023/08/30 09:03:08;;;;;;;6.43;2.78;;;;;;;23.29;40.77;93093.06;5009083;28;20148;-79
2023/08/30 09:05:37;;;;;;;9.02;3.22;;;;;;;23.32;40.91;93092.25;5007802;28;20033;-79
2023/08/30 09:08:05;;;;;;;4.68;2.60;;;;;;;23.34;40.69;93087.94;5007492;28;20124;-78
2023/08/30 09:10:34;;;;;;;5.45;2.88;;;;;;;23.51;41.09;93091.59;5007760;28;20506;-77
2023/08/30 09:13:00;;;;;;;5.40;3.53;;;;;;;23.55;42.24;93095.00;5009651;28;20029;-78
2023/08/30 09:15:32;;;;;;;5.10;2.70;;;;;;;23.58;42.86;93089.53;5008432;28;20033;-77
2023/08/30 09:17:58;;;;;;;6.63;3.10;;;;;;;23.72;41.83;93085.81;5007610;28;20413;-77
2023/08/30 09:20:23;;;;;;;8.82;4.05;;;;;;;23.74;41.04;93069.88;5008043;28;20038;-77
2023/08/30 09:22:50;;;;;;;8.57;4.20;;;;;;;23.81;39.76;93067.03;5009506;28;20089;-77
2023/08/30 09:25:24;;;;;;;9.52;4.07;;;;;;;23.83;39.05;93072.81;5007116;28;20529;-78
2023/08/30 09:27:50;;;;;;;;;;;;;;;23.90;39.48;93080.84;5009107;28;20477;-77
2023/08/30 09:30:21;;;;;;;6.38;4.05;;;;;;;23.77;38.81;93082.59;5006529;28;19929;-76
2023/08/30 09:32:48;;;;;;;7.65;4.50;;;;;;;23.73;37.97;93075.72;5015116;28;20081;-77
2023/08/30 09:35:13;;;;;;;7.00;4.47;;;;;;;23.69;38.38;93078.50;5009018;28;20033;-77
2023/08/30 09:37:39;;;;;;;8.05;4.88;;;;;;;23.75;38.51;93076.84;5008576;28;20500;-78
2023/08/30 09:40:05;;;;;;;7.20;4.32;;;;;;;23.76;38.38;93083.03;5006790;28;20030;-76
2023/08/30 09:42:31;;;;;;;6.18;4.50;;;;;;;23.78;37.99;93072.53;5007515;28;20022;-76
2023/08/30 09:44:56;;;;;;;9.13;5.20;;;;;;;23.89;38.26;93073.88;5007024;28;20025;-76
2023/08/30 09:47:26;;;;;;;6.38;4.47;;;;;;;23.95;38.88;93085.78;5021297;28;20041;-76
2023/08/30 09:49:55;;;;;;;10.50;4.80;;;;;;;23.88;40.22;93064.19;5006955;28;21018;-77
2023/08/30 09:52:28;;;;;;;8.77;5.22;;;;;;;23.99;39.35;93069.44;5006949;28;20025;-77
2023/08/30 09:54:56;;;;;;;8.00;4.90;;;;;;;23.91;40.14;93052.50;5007514;28;20017;-76
2023/08/30 09:57:22;;;;;;;10.43;5.30;;;;;;;23.99;39.50;93062.06;5005293;28;20036;-76
2023/08/30 09:59:48;;;;;;;12.13;5.18;;;;;;;24.11;39.80;93060.69;5007607;28;20049;-76
2023/08/30 10:02:14;;;;;;;8.65;4.53;;;;;;;24.22;39.47;93066.69;5004854;28;20034;-77
2023/08/30 10:04:40;;;;;;;10.27;5.43;;;;;;;24.26;39.27;93055.75;5011478;28;20567;-76
2023/08/30 10:07:07;;;;;;;9.70;5.10;;;;;;;24.21;38.12;93045.38;5010769;28;20025;-77
2023/08/30 10:09:33;;;;;;;5.38;4.70;;;;;;;24.22;38.69;93052.34;5010643;28;20064;-77
2023/08/30 10:11:58;;;;;;;7.15;4.72;;;;;;;24.15;38.68;93045.09;5011525;28;20056;-76
2023/08/30 10:14:24;;;;;;;9.88;4.72;;;;;;;24.16;38.91;93054.78;5012355;28;20030;-76
2023/08/30 10:16:55;;;;;;;5.82;4.35;;;;;;;24.05;38.59;93056.91;5013186;28;20041;-76
2023/08/30 10:19:26;;;;;;;9.45;4.68;;;;;;;24.07;38.96;93053.78;5010788;28;20029;-77
2023/08/30 10:22:03;;;;;;;9.45;4.68;;;;;;;24.17;38.56;93048.16;5010110;28;20025;-76
2023/08/30 10:24:35;;;;;;;7.70;4.78;;;;;;;24.10;38.81;93031.97;5017221;28;20084;-76
2023/08/30 10:27:04;;;;;;;7.80;4.60;;;;;;;24.27;39.06;93043.72;5014789;28;20030;-77
2023/08/30 10:29:32;;;;;;;7.85;4.20;;;;;;;24.29;38.47;93052.22;5009273;28;20054;-77
2023/08/30 10:32:05;;;;;;;5.30;4.25;;;;;;;24.37;39.47;93046.22;5009499;28;20871;-77
2023/08/30 10:34:37;;;;;;;9.35;5.35;;;;;;;24.30;37.73;93054.50;5008750;28;20080;-77
2023/08/30 10:37:06;;;;;;;10.65;4.72;;;;;;;24.38;37.71;93047.00;5009678;28;20536;-76
2023/08/30 10:39:40;;;;;;;8.77;5.18;;;;;;;24.33;37.76;93042.81;5010504;28;20025;-77
2023/08/30 10:42:10;;;;;;;9.30;4.57;;;;;;;24.28;37.54;93026.22;5011868;28;20041;-77
2023/08/30 10:44:50;;;;;;;9.07;4.80;;;;;;;24.54;37.77;93033.44;5008951;28;20034;-77
2023/08/30 10:47:26;;;;;;;9.48;5.00;;;;;;;24.54;36.07;93036.16;5010098;28;20067;-77
2023/08/30 10:49:55;;;;;;;7.82;4.22;;;;;;;24.55;37.39;93029.53;5008377;28;20040;-76
2023/08/30 10:52:21;;;;;;;10.75;4.60;;;;;;;24.52;37.48;93011.38;5009392;28;20021;-76
2023/08/30 10:54:47;;;;;;;7.97;4.85;;;;;;;24.54;36.50;93021.84;5009487;28;20040;-76
2023/08/30 10:57:18;;;;;;;6.45;4.53;;;;;;;24.63;36.76;93019.31;5010680;28;20493;-76
2023/08/30 11:00:16;;;;;;;6.53;4.28;;;;;;;24.69;36.79;93029.25;5010780;28;20596;-76
2023/08/30 11:02:51;;;;;;;10.20;5.22;;;;;;;24.52;36.52;93005.94;5009198;28;20491;-77
2023/08/30 11:05:22;;;;;;;11.85;5.22;;;;;;;24.72;36.89;93016.81;5011072;28;20437;-76
2023/08/30 11:07:50;;;;;;;9.32;5.05;;;;;;;24.79;36.04;93024.78;5008798;28;20041;-77
2023/08/30 11:10:17;;;;;;;11.50;5.10;;;;;;;24.80;36.66;93021.66;5012285;28;20042;-77
2023/08/30 11:12:44;;;;;;;7.57;5.15;;;;;;;24.66;36.39;93018.44;5010378;28;20031;-76
2023/08/30 11:15:11;;;;;;;13.40;7.85;;;;;;;24.72;35.83;93017.56;5010546;28;20393;-76
2023/08/30 11:17:36;;;;;;;8.43;4.78;;;;;;;24.68;36.11;93011.41;5025318;28;20647;-77
2023/08/30 11:20:09;;;;;;;7.30;4.65;;;;;;;24.69;35.15;93012.94;5010993;28;20128;-76
2023/08/30 11:22:46;;;;;;;7.95;5.15;;;;;;;24.72;35.52;93003.22;5011332;28;20099;-76
2023/08/30 11:25:13;;;;;;;8.18;6.18;;;;;;;24.64;35.03;93010.72;5009558;28;20026;-76
2023/08/30 11:27:39;;;;;;;11.27;5.63;;;;;;;24.55;34.95;92996.94;5012678;28;20358;-77
2023/08/30 11:30:05;;;;;;;7.70;6.07;;;;;;;24.66;35.08;92994.75;5009789;28;20184;-77